ZSPDZBYN

Guest
Details From ZSPD - PUDONG
To ZBYN - WUSU
Flight Number -
Tags decoded
Created
Modified
Stats Distance 603 nm / 1,116 km
Max Altitude 0 ft / 0 m
Waypoints 2
Social Downloads 0
Likes 0
Share VATSIM

Download

Looking for another format? Having issues loading an existing format? Contact us
Advertisement - Login to hide

Notes

Requested: ZSPD ZBYN

Route

ZSPD ZBYN

ID Type Via Altitude Latitude Longitude Leg Dist Tot Dist Heading (true) Name
O ZSPD APT - 0 ft / 0 m 31.14343˚ 121.80509˚ - 0 nm - PUDONG
O ZBYN APT - 0 ft / 0 m 37.74690˚ 112.62843˚ 602 nm 602 nm 314° / 308° WUSU

Altitude Profile

Advertisement - Login to hide

Weather


0- 5 10 15 20 25 30 35+ Temperature / ° C

Clouds and Precipitation
Forecast for 2017-12-19 00:00 UTC. Updated 2 hours ago

Ground ~20,000 ft ~40,000 ft Winds

ZSPD

Details ICAO ZSPD (PVG)
Name PUDONG
Region China
Timezone Asia/Shanghai (UTC+8.0)
Stats Elevation 13 ft / 4 m (AMSL)
Location 31.143427° 121.805092°
Runways 2
Magnetic Variation 5.979° W

METAR

ZSPD 182030Z 31002MPS CAVOK 01/M05 Q1033 NOSIG

Decode

TAF

Not found

Departure Runways

ID Width Length Bearing (true) Bearing (mag) Surface Threshold Offset Overrun Length
16 197 ft / 60 m 12,500 ft / 3,810 m 162.09° 168.07° Concrete 0 ft / 0 m 395 ft / 120 m
17 197 ft / 60 m 13,155 ft / 4,010 m 162.09° 168.07° Concrete 0 ft / 0 m 196 ft / 60 m
34 197 ft / 60 m 12,500 ft / 3,810 m 342.10° 348.08° Concrete 0 ft / 0 m 395 ft / 120 m
35 197 ft / 60 m 13,155 ft / 4,010 m 342.10° 348.08° Concrete 0 ft / 0 m 196 ft / 60 m

ZBYN

Details ICAO ZBYN (TYN)
Name WUSU
Region China
Timezone Asia/Shanghai (UTC+8.0)
Stats Elevation 2,575 ft / 785 m (AMSL)
Location 37.746897° 112.628427°
Runways 1
Magnetic Variation 5.263° W

METAR

ZBYN 182030Z VRB01MPS CAVOK M10/M16 Q1035 NOSIG

Decode

TAF

Not found

Destination Runways

ID Width Length Bearing (true) Bearing (mag) Surface Threshold Offset Overrun Length
13 148 ft / 45 m 10,524 ft / 3,208 m 127.09° 132.35° Concrete 0 ft / 0 m 195 ft / 59 m
31 148 ft / 45 m 10,524 ft / 3,208 m 307.10° 312.36° Concrete 0 ft / 0 m 195 ft / 59 m

Approach Navaids

Runway Type Ident Frequency Range Bearing (true) Bearing (mag) Slope Elevation
13 Localiser ICC 110.90 MHz 18 nm / 33 km 127.06° 132.32° - 2,575 ft / 785 m (AMSL)
13 Glidescope ICC 110.90 MHz 10 nm / 19 km 127.09° 132.36° 3.00° 2,575 ft / 785 m (AMSL)
31 Localiser IBB 109.30 MHz 18 nm / 33 km 307.04° 312.30° - 2,575 ft / 785 m (AMSL)
31 Glidescope IBB 109.30 MHz 10 nm / 19 km 307.10° 312.36° 3.00° 2,575 ft / 785 m (AMSL)